Time;durP1;ratioP1;P1;durP2;ratioP2;P2;SDS_P1;SDS_P2;PMS_P1;PMS_P2;Temp;Humidity;BMP_temperature;BMP_pressure;BME280_temperature;BME280_humidity;BME280_pressure;Samples;Min_cycle;Max_cycle;Signal;HPM_P1;HPM_P2
2022/05/01 00:00:53;;;;;;;28.83;16.03;;;;;;;10.39;81.72;101197.63;10415630;28;20197;-66
2022/05/01 00:05:59;;;;;;;26.80;16.20;;;;;;;10.36;81.98;101199.34;10414818;28;20197;-66
2022/05/01 00:11:02;;;;;;;30.37;16.70;;;;;;;10.37;80.60;101201.09;10415188;28;20300;-66
2022/05/01 00:16:16;;;;;;;29.97;16.70;;;;;;;10.33;82.83;101199.34;10414850;28;20228;-66
2022/05/01 00:21:20;;;;;;;26.93;16.23;;;;;;;10.26;83.63;101195.00;10415716;28;20233;-67
2022/05/01 00:26:26;;;;;;;26.07;15.30;;;;;;;10.11;84.44;101193.16;10414986;28;20784;-66
2022/05/01 00:31:30;;;;;;;28.63;16.53;;;;;;;10.09;84.91;101191.44;10414820;28;20221;-69
2022/05/01 00:36:35;;;;;;;28.07;15.63;;;;;;;10.02;83.83;101193.13;10415468;28;20209;-67
2022/05/01 00:41:40;;;;;;;28.97;16.50;;;;;;;10.04;83.91;101185.34;10414542;28;20288;-68
2022/05/01 00:46:46;;;;;;;28.40;15.13;;;;;;;9.94;84.75;101194.78;10376223;28;20527;-67
2022/05/01 00:51:53;;;;;;;28.13;15.27;;;;;;;9.90;86.25;101195.63;10376624;28;20222;-65
2022/05/01 00:56:59;;;;;;;24.00;15.17;;;;;;;9.94;86.57;101188.75;10376579;28;20214;-67
2022/05/01 01:02:04;;;;;;;26.40;14.70;;;;;;;9.91;87.45;101194.78;10374228;28;20818;-67
2022/05/01 01:07:09;;;;;;;24.93;14.20;;;;;;;9.91;87.19;101191.28;10373663;28;20198;-68
2022/05/01 01:17:43;;;;;;;27.37;16.07;;;;;;;9.74;88.38;101187.75;10375957;28;20214;-67
2022/05/01 01:22:49;;;;;;;24.60;14.60;;;;;;;9.71;88.90;101190.31;10381025;28;20295;-65
2022/05/01 01:27:54;;;;;;;26.47;15.43;;;;;;;9.64;89.45;101193.72;10382954;28;20360;-71
2022/05/01 01:32:57;;;;;;;25.03;15.47;;;;;;;9.60;89.93;101195.44;10380374;28;20218;-66
2022/05/01 01:38:02;;;;;;;26.53;15.27;;;;;;;9.65;88.59;101193.72;10380503;28;20221;-65
2022/05/01 01:43:06;;;;;;;27.40;15.00;;;;;;;9.62;88.61;101185.94;10390842;28;20227;-68
2022/05/01 01:48:11;;;;;;;24.03;14.40;;;;;;;9.54;88.71;101190.22;10419570;28;20218;-65
2022/05/01 01:53:15;;;;;;;26.77;14.53;;;;;;;9.55;88.85;101188.47;10420558;28;20300;-67
2022/05/01 01:58:19;;;;;;;26.07;14.63;;;;;;;9.44;90.32;101187.53;10419865;28;20259;-66
2022/05/01 02:03:22;;;;;;;29.17;14.30;;;;;;;9.33;90.74;101184.84;10419985;28;20542;-66
2022/05/01 02:08:28;;;;;;;28.77;15.00;;;;;;;9.21;90.39;101185.59;10419839;28;20230;-64
2022/05/01 02:13:31;;;;;;;27.40;15.47;;;;;;;9.11;92.50;101183.78;10419774;28;20218;-67
2022/05/01 02:18:35;;;;;;;28.40;14.70;;;;;;;9.05;93.00;101180.28;10420482;28;20225;-66
2022/05/01 02:23:40;;;;;;;25.77;14.43;;;;;;;8.98;92.85;101171.59;10423890;28;20734;-68
2022/05/01 02:28:43;;;;;;;24.57;14.83;;;;;;;8.94;93.80;101182.78;10422172;28;20222;-67
2022/05/01 02:33:46;;;;;;;25.53;14.57;;;;;;;8.88;95.20;101189.63;10422064;28;20214;-69
2022/05/01 02:38:51;;;;;;;27.00;13.60;;;;;;;8.87;95.82;101178.38;10422361;28;20379;-67
2022/05/01 02:43:56;;;;;;;26.13;14.37;;;;;;;8.86;95.42;101178.38;10422127;28;20228;-69
2022/05/01 02:49:00;;;;;;;24.90;13.83;;;;;;;8.79;95.80;101174.88;10422519;28;20231;-68
2022/05/01 02:54:04;;;;;;;21.70;12.40;;;;;;;8.83;95.84;101175.75;10421330;28;20300;-67
2022/05/01 02:59:09;;;;;;;23.43;13.03;;;;;;;8.74;94.30;101171.38;10421779;28;20665;-68
2022/05/01 03:04:13;;;;;;;27.20;13.50;;;;;;;8.70;96.46;101174.75;10421368;28;20674;-68
2022/05/01 03:09:18;;;;;;;22.93;13.43;;;;;;;8.59;96.57;101175.50;10421038;28;20232;-69
2022/05/01 03:14:21;;;;;;;24.83;13.23;;;;;;;8.62;97.82;101179.00;10420656;28;20213;-67
2022/05/01 03:24:47;;;;;;;21.83;12.43;;;;;;;8.53;98.02;101180.59;10420733;28;20291;-69
2022/05/01 03:35:08;;;;;;;27.83;14.27;;;;;;;8.55;98.63;101190.13;10419149;28;20225;-66
2022/05/01 03:40:17;;;;;;;20.40;12.73;;;;;;;8.57;98.83;101184.97;10418937;28;20235;-68
2022/05/01 03:45:20;;;;;;;20.83;11.80;;;;;;;8.58;99.04;101184.09;10420591;28;20296;-68
2022/05/01 03:50:23;;;;;;;20.43;11.97;;;;;;;8.59;99.35;101191.03;10419166;28;20225;-69
2022/05/01 03:55:28;;;;;;;20.47;11.60;;;;;;;8.60;99.62;101187.59;10419107;28;20214;-70
2022/05/01 04:00:31;;;;;;;21.43;12.57;;;;;;;8.60;99.64;101191.03;10419025;28;20681;-68
2022/05/01 04:05:35;;;;;;;21.90;12.23;;;;;;;8.63;99.59;101187.63;10418669;28;20213;-71
2022/05/01 04:10:41;;;;;;;18.57;10.87;;;;;;;8.64;100.00;101187.66;10418950;28;20254;-67
2022/05/01 04:15:45;;;;;;;21.13;11.77;;;;;;;8.69;99.94;101188.56;10418504;28;20206;-68
2022/05/01 04:20:50;;;;;;;21.60;12.40;;;;;;;8.70;98.94;101187.69;10418291;28;20666;-69
2022/05/01 04:25:54;;;;;;;27.00;15.50;;;;;;;8.60;96.91;101191.03;10418718;28;20582;-67
2022/05/01 04:30:58;;;;;;;21.77;13.23;;;;;;;8.71;99.34;101194.63;10418369;28;20221;-67
2022/05/01 04:36:01;;;;;;;21.80;12.63;;;;;;;8.81;98.99;101193.88;10418486;28;20670;-68
2022/05/01 04:41:06;;;;;;;20.43;11.70;;;;;;;8.80;98.18;101191.28;10418452;28;20681;-67
2022/05/01 04:46:09;;;;;;;23.27;11.83;;;;;;;8.92;100.00;101191.41;10417835;28;20217;-68
2022/05/01 04:51:12;;;;;;;20.40;10.97;;;;;;;9.00;98.39;101190.63;10419871;28;20531;-69
2022/05/01 05:01:38;;;;;;;16.67;9.33;;;;;;;9.20;94.49;101194.25;10424295;28;20221;-69
2022/05/01 05:06:41;;;;;;;17.00;9.07;;;;;;;9.21;95.01;101189.94;10423178;28;20816;-66
2022/05/01 05:11:46;;;;;;;17.90;9.57;;;;;;;9.23;97.42;101191.66;10422282;28;20221;-69
2022/05/01 05:16:50;;;;;;;16.73;9.50;;;;;;;9.26;95.50;101188.25;10421997;28;20726;-68
2022/05/01 05:21:53;;;;;;;14.87;9.23;;;;;;;9.39;98.13;101197.84;10404913;28;20229;-69
2022/05/01 05:27:01;;;;;;;17.20;9.03;;;;;;;9.46;97.95;101202.22;10074208;28;10000525;-69
2022/05/01 05:32:05;;;;;;;19.47;8.67;;;;;;;9.55;95.36;101191.94;10422008;28;20232;-69
2022/05/01 05:37:08;;;;;;;15.97;8.37;;;;;;;9.66;93.50;101199.78;10421534;28;20377;-66
2022/05/01 05:42:13;;;;;;;14.33;9.00;;;;;;;9.75;91.23;101200.69;10421154;28;20229;-68
2022/05/01 05:47:16;;;;;;;15.97;9.13;;;;;;;9.80;93.65;101196.41;10420916;28;20560;-68
2022/05/01 05:52:19;;;;;;;16.23;8.07;;;;;;;9.92;91.18;101190.47;10420906;28;20225;-69
2022/05/01 05:57:24;;;;;;;16.33;9.67;;;;;;;10.06;92.85;101199.19;10420791;28;20243;-68
2022/05/01 06:02:27;;;;;;;13.90;8.30;;;;;;;10.16;92.34;101198.41;10420154;28;20232;-69
2022/05/01 06:07:31;;;;;;;13.83;8.23;;;;;;;10.24;89.49;101196.69;10420318;28;20266;-68
2022/05/01 06:12:42;;;;;;;14.37;8.30;;;;;;;10.36;88.25;101195.03;10420081;28;20221;-66
2022/05/01 06:17:45;;;;;;;14.03;7.73;;;;;;;10.47;88.11;101200.28;10420223;28;20218;-67
2022/05/01 06:22:50;;;;;;;14.10;7.80;;;;;;;10.58;86.31;101193.38;10419532;28;20251;-68
2022/05/01 06:27:55;;;;;;;15.97;8.40;;;;;;;10.65;83.21;101194.28;10383892;28;20686;-69
2022/05/01 06:32:58;;;;;;;14.03;8.67;;;;;;;10.88;81.82;101201.25;10378178;28;20233;-68
2022/05/01 06:38:02;;;;;;;15.03;8.40;;;;;;;11.05;80.86;101203.88;10378502;28;20214;-66
2022/05/01 06:43:07;;;;;;;14.60;8.13;;;;;;;11.21;78.68;101205.63;10378094;28;20573;-68
2022/05/01 06:48:11;;;;;;;20.27;11.30;;;;;;;11.35;80.75;101204.78;10377574;28;20256;-66
2022/05/01 06:53:15;;;;;;;16.53;9.53;;;;;;;11.46;78.14;101204.75;10378304;28;20248;-66
2022/05/01 06:58:20;;;;;;;23.30;13.43;;;;;;;11.72;76.70;101208.25;10377846;28;20238;-68
2022/05/01 07:03:23;;;;;;;14.63;6.77;;;;;;;11.96;74.51;101196.97;10377575;28;20248;-65
2022/05/01 07:08:27;;;;;;;13.40;6.80;;;;;;;12.18;75.12;101193.41;10376737;28;20356;-66
2022/05/01 07:13:32;;;;;;;12.30;5.63;;;;;;;12.54;70.02;101193.28;10376822;28;20222;-66
2022/05/01 07:18:36;;;;;;;9.13;5.40;;;;;;;12.79;69.01;101195.72;10377767;28;20279;-68
2022/05/01 07:23:39;;;;;;;11.57;5.50;;;;;;;13.13;68.16;101196.41;10378507;28;20234;-68
2022/05/01 07:28:44;;;;;;;10.93;5.83;;;;;;;13.34;69.25;101191.03;10416934;28;20275;-70
2022/05/01 07:33:47;;;;;;;10.53;5.20;;;;;;;13.51;68.92;101183.94;10416555;28;20232;-68
2022/05/01 07:38:50;;;;;;;10.90;6.43;;;;;;;13.68;67.64;101191.63;10416842;28;20217;-68
2022/05/01 07:43:55;;;;;;;9.77;4.67;;;;;;;13.88;66.53;101182.72;10416560;28;20568;-69
2022/05/01 07:49:01;;;;;;;8.77;4.00;;;;;;;14.06;64.84;101181.66;10417182;28;20216;-70
2022/05/01 07:54:05;;;;;;;10.03;4.40;;;;;;;14.24;63.66;101172.72;10415938;28;20221;-69
2022/05/01 07:59:11;;;;;;;10.00;3.97;;;;;;;14.44;62.76;101168.16;10415930;28;20216;-69
2022/05/01 08:04:29;;;;;;;8.17;3.70;;;;;;;14.74;60.11;101165.13;10416067;28;20252;-69
2022/05/01 08:09:33;;;;;;;7.40;3.80;;;;;;;14.91;60.20;101160.50;10416015;28;20236;-71
2022/05/01 08:14:41;;;;;;;7.20;2.97;;;;;;;15.11;58.11;101161.09;10419665;28;20248;-67
2022/05/01 08:25:06;;;;;;;6.87;3.10;;;;;;;15.46;55.40;101142.25;10417904;28;20570;-70
2022/05/01 08:30:12;;;;;;;6.37;2.43;;;;;;;15.64;54.20;101147.13;10417875;28;20223;-67
2022/05/01 08:35:16;;;;;;;6.27;3.57;;;;;;;15.75;52.40;101138.22;10418030;28;20227;-70
2022/05/01 08:40:19;;;;;;;6.93;2.40;;;;;;;16.03;52.43;101136.75;10419033;28;20218;-72
2022/05/01 08:45:26;;;;;;;5.87;2.23;;;;;;;16.29;52.03;101138.84;10418141;28;20213;-68
2022/05/01 08:50:30;;;;;;;5.93;2.10;;;;;;;16.47;49.57;101132.41;10417818;28;20675;-69
2022/05/01 08:55:33;;;;;;;6.47;2.80;;;;;;;16.62;49.46;101126.84;10417665;28;20217;-68
2022/05/01 09:00:39;;;;;;;4.70;2.23;;;;;;;16.70;48.60;101122.28;10417449;28;20220;-68
2022/05/01 09:05:42;;;;;;;6.97;2.83;;;;;;;16.96;48.58;101125.16;10402635;28;20213;-71
2022/05/01 09:10:46;;;;;;;6.13;2.57;;;;;;;17.01;47.30;101116.28;10417352;28;20243;-71
2022/05/01 09:15:51;;;;;;;5.43;2.50;;;;;;;17.24;47.20;101103.44;10417464;28;20198;-66
2022/05/01 09:21:02;;;;;;;6.30;2.57;;;;;;;17.57;48.43;101109.59;10417669;28;20661;-68
2022/05/01 09:26:06;;;;;;;5.97;2.40;;;;;;;17.85;48.21;101100.09;10417059;28;20242;-68
2022/05/01 09:31:13;;;;;;;6.57;2.13;;;;;;;18.28;47.16;101092.69;10417252;28;20217;-70
2022/05/01 09:36:35;;;;;;;4.57;2.00;;;;;;;19.19;44.31;101088.03;10417212;28;20284;-67
2022/05/01 09:41:42;;;;;;;4.90;2.17;;;;;;;19.71;43.64;101079.22;10424673;28;20266;-68
2022/05/01 09:46:48;;;;;;;5.87;2.47;;;;;;;20.17;43.31;101079.25;10424441;28;20206;-68
2022/05/01 09:51:55;;;;;;;4.90;2.17;;;;;;;20.48;42.38;101076.31;10424158;28;20222;-68
2022/05/01 09:57:01;;;;;;;6.47;2.13;;;;;;;20.64;41.21;101072.13;10424224;28;20272;-67
2022/05/01 10:02:08;;;;;;;4.83;2.17;;;;;;;21.19;41.26;101062.88;10423612;28;20202;-69
2022/05/01 10:07:16;;;;;;;6.60;2.33;;;;;;;21.34;40.10;101075.41;10423356;28;20197;-67
2022/05/01 10:12:23;;;;;;;8.03;2.20;;;;;;;21.55;38.88;101067.41;10422986;28;20224;-67
2022/05/01 10:17:28;;;;;;;4.57;1.80;;;;;;;22.64;37.73;101068.53;10423105;28;20199;-67
2022/05/01 10:22:33;;;;;;;8.70;2.30;;;;;;;23.22;37.01;101055.94;10422913;28;20201;-69
2022/05/01 10:27:48;;;;;;;8.45;2.38;;;;;;;23.53;35.01;101048.16;10422516;28;20189;-67
2022/05/01 10:33:29;;;;;;;5.17;1.70;;;;;;;23.64;34.75;101048.41;10422398;28;20300;-68
2022/05/01 10:38:42;;;;;;;5.00;1.70;;;;;;;23.85;36.27;101035.81;10376605;28;20743;-67
2022/05/01 10:43:54;;;;;;;20.37;15.17;;;;;;;23.95;35.21;101039.69;10421919;28;20548;-71
2022/05/01 10:49:05;;;;;;;6.05;2.30;;;;;;;23.74;34.87;101039.06;10421987;28;20642;-69
2022/05/01 10:54:41;;;;;;;7.57;2.00;;;;;;;24.51;33.30;101024.16;10421638;28;20227;-68
2022/05/01 10:59:47;;;;;;;7.55;1.80;;;;;;;25.51;33.57;101019.13;10414996;28;20241;-64
2022/05/01 11:04:54;;;;;;;;;;;;;;;25.95;31.55;101011.03;10421365;28;20202;-70
2022/05/01 11:09:58;;;;;;;;;;;;;;;26.59;31.26;101005.13;10422587;28;20019;-71
2022/05/01 11:15:01;;;;;;;;;;;;;;;26.57;29.44;101007.88;10420397;28;20257;-67
2022/05/01 11:20:08;;;;;;;;;;;;;;;27.21;30.42;101001.78;10417745;28;19939;-67
2022/05/01 11:25:11;;;;;;;;;;;;;;;27.93;29.65;101004.69;10417347;28;20003;-67
2022/05/01 11:30:21;;;;;;;;;;;;;;;28.52;28.91;101002.19;10053689;28;10000272;-66
2022/05/01 11:35:46;;;;;;;;;;;;;;;28.48;27.91;100992.66;10376504;28;20484;-64
2022/05/01 11:40:56;;;;;;;;;;;;;;;29.15;28.78;100976.81;10376133;28;19978;-67
2022/05/01 11:46:01;;;;;;;;;;;;;;;28.75;28.96;100985.28;10375693;28;19936;-64
2022/05/01 11:51:06;;;;;;;;;;;;;;;29.69;26.57;100971.66;10375583;28;20004;-67
2022/05/01 12:06:58;;;;;;;;;;;;;;;30.56;27.59;100958.25;10375376;28;20008;-67
2022/05/01 12:12:01;;;;;;;;;;;;;;;31.03;26.50;100963.13;10374925;28;19921;-66
2022/05/01 12:17:06;;;;;;;;;;;;;;;31.21;26.42;100953.53;10374739;28;19925;-66
2022/05/01 12:22:13;;;;;;;;;;;;;;;29.69;26.51;100954.75;10375040;28;20421;-65
2022/05/01 12:27:18;;;;;;;;;;;;;;;26.97;28.52;100963.47;10375024;28;19921;-66
2022/05/01 12:32:21;;;;;;;;;;;;;;;26.06;29.21;100958.00;10409421;28;19921;-65
2022/05/01 12:37:29;;;;;;;;;;;;;;;26.89;29.89;100947.13;10415199;28;19921;-65
2022/05/01 12:48:06;;;;;;;;;;;;;;;26.51;28.48;100931.03;10415306;28;20524;-66
2022/05/01 12:53:22;;;;;;;;;;;;;;;25.89;31.62;100940.44;10415202;28;20012;-67
2022/05/01 12:58:27;;;;;;;;;;;;;;;25.16;29.98;100934.47;10415053;28;19986;-67
2022/05/01 13:03:36;;;;;;;;;;;;;;;25.68;33.01;100933.00;10414751;28;19927;-67
2022/05/01 13:08:41;;;;;;;;;;;;;;;25.13;31.61;100930.19;10415240;28;19924;-66
2022/05/01 13:13:45;;;;;;;;;;;;;;;25.89;31.85;100923.63;10419731;28;19928;-68
2022/05/01 13:18:48;;;;;;;;;;;;;;;26.06;30.59;100915.44;10422488;28;20518;-66
2022/05/01 13:23:55;;;;;;;;;;;;;;;27.00;30.22;100913.47;10422057;28;19921;-70
2022/05/01 13:28:58;;;;;;;;;;;;;;;26.65;30.97;100909.66;10414888;28;20118;-67
2022/05/01 13:34:01;;;;;;;;;;;;;;;26.01;31.85;100914.84;10380710;28;19921;-67
2022/05/01 13:39:07;;;;;;;;;;;;;;;25.86;30.88;100913.19;10380941;28;19921;-68
2022/05/01 13:49:42;;;;;;;;;;;;;;;25.39;30.75;100915.31;10415546;28;20017;-68
2022/05/01 13:54:48;;;;;;;;;;;;;;;25.04;29.42;100917.44;10420796;28;19925;-68
2022/05/01 13:59:51;;;;;;;;;;;;;;;24.14;31.02;100904.28;10420568;28;19921;-68
2022/05/01 14:04:54;;;;;;;;;;;;;;;24.47;30.43;100903.16;10421405;28;20607;-69
2022/05/01 14:09:59;;;;;;;;;;;;;;;24.43;28.78;100904.31;10420441;28;19924;-65
2022/05/01 14:15:02;;;;;;;;;;;;;;;24.35;28.29;100903.03;10419988;28;19921;-67
2022/05/01 14:20:07;;;;;;;;;;;;;;;24.46;27.15;100893.50;10420283;28;20299;-65
2022/05/01 14:25:14;;;;;;;;;;;;;;;24.72;27.03;100890.19;10419324;28;19932;-67
2022/05/01 14:30:17;;;;;;;;;;;;;;;24.68;28.08;100885.97;10423110;28;20234;-65
2022/05/01 14:35:21;;;;;;;;;;;;;;;24.47;27.42;100886.41;10419610;28;19921;-66
2022/05/01 14:40:26;;;;;;;;;;;;;;;23.67;29.63;100885.69;10419253;28;19990;-68
2022/05/01 14:45:30;;;;;;;;;;;;;;;23.21;27.16;100878.53;10419085;28;20309;-68
2022/05/01 14:50:34;;;;;;;;;;;;;;;24.01;28.01;100877.59;10419211;28;19972;-68
2022/05/01 14:55:39;;;;;;;;;;;;;;;23.71;29.50;100880.13;10418745;28;19925;-69
2022/05/01 15:06:21;;;;;;;;;;;;;;;23.37;31.00;100880.28;10398152;28;19931;-66
2022/05/01 15:11:25;;;;;;;;;;;;;;;22.29;31.96;100878.88;10418188;28;19920;-68
2022/05/01 15:16:36;;;;;;;;;;;;;;;21.93;31.19;100878.06;10069459;28;10000556;-69
2022/05/01 15:27:18;;;;;;;;;;;;;;;21.22;34.66;100872.59;10067156;28;10000185;-67
2022/05/01 15:32:24;;;;;;;5.90;2.00;;;;;;;20.90;36.71;100876.63;10068487;28;9999943;-65
2022/05/01 15:37:32;;;;;;;3.97;1.77;;;;;;;21.11;33.94;100866.94;10419042;28;20189;-66
2022/05/01 15:42:40;;;;;;;4.47;1.92;;;;;;;21.39;33.95;100864.75;10419770;28;20304;-68
2022/05/01 15:47:44;;;;;;;6.13;1.75;;;;;;;21.44;35.63;100870.69;10419994;28;20276;-68
2022/05/01 15:58:13;;;;;;;4.63;1.60;;;;;;;20.64;38.17;100861.94;10417463;28;20227;-67
2022/05/01 16:03:16;;;;;;;5.95;2.10;;;;;;;20.51;35.17;100850.22;10418618;28;20280;-67
2022/05/01 16:08:28;;;;;;;4.73;2.17;;;;;;;20.33;33.84;100858.03;10416170;28;20209;-68
2022/05/01 16:13:37;;;;;;;4.83;2.10;;;;;;;20.17;36.11;100856.97;10414583;28;20297;-65
2022/05/01 16:18:46;;;;;;;7.20;2.60;;;;;;;20.08;35.89;100858.19;10415807;28;20185;-67
2022/05/01 16:23:53;;;;;;;5.77;2.33;;;;;;;19.98;34.54;100845.44;10414296;28;20737;-67
2022/05/01 16:29:09;;;;;;;17.43;3.00;;;;;;;-141.13;100.00;65498.22;10414800;28;20197;-71
2022/05/01 16:34:20;;;;;;;5.27;2.00;;;;;;;-141.13;100.00;65498.22;10414722;28;20660;-66
2022/05/01 16:39:25;;;;;;;6.47;1.90;;;;;;;-141.13;100.00;65498.22;10414666;28;20217;-71
2022/05/01 16:44:30;;;;;;;71.23;43.77;;;;;;;-141.13;100.00;65498.22;10414547;28;20221;-73
2022/05/01 16:49:34;;;;;;;9.03;3.43;;;;;;;-141.13;100.00;65498.22;10422749;28;20217;-71
2022/05/01 16:54:40;;;;;;;7.33;2.20;;;;;;;-141.13;100.00;65498.22;10422796;28;20594;-69
2022/05/01 16:59:47;;;;;;;6.73;1.93;;;;;;;-141.13;100.00;65498.22;10423023;28;20225;-71
2022/05/01 17:04:58;;;;;;;5.23;2.10;;;;;;;-141.13;100.00;65498.22;10422494;28;20239;-69
2022/05/01 17:10:05;;;;;;;4.30;1.70;;;;;;;-141.13;100.00;65498.22;10422131;28;20559;-70
2022/05/01 17:15:15;;;;;;;22.67;9.23;;;;;;;-141.13;100.00;65498.22;10422411;28;20231;-69
2022/05/01 17:20:20;;;;;;;6.53;2.63;;;;;;;-141.13;100.00;65498.22;10423299;28;20252;-69
2022/05/01 17:25:28;;;;;;;7.37;2.10;;;;;;;-141.13;100.00;65498.22;10421686;28;20320;-70
2022/05/01 17:30:44;;;;;;;5.87;2.03;;;;;;;-141.13;100.00;65498.22;10412525;28;20228;-70
2022/05/01 17:36:08;;;;;;;6.03;2.30;;;;;;;-141.13;100.00;65498.22;10380114;28;20225;-68
2022/05/01 17:41:12;;;;;;;6.60;1.87;;;;;;;-141.13;100.00;65498.22;10380443;28;20761;-72
2022/05/01 17:46:21;;;;;;;6.47;2.17;;;;;;;-141.13;100.00;65498.22;10380645;28;20228;-68
2022/05/01 17:51:26;;;;;;;217.43;102.57;;;;;;;-141.13;100.00;65498.22;10380209;28;20560;-68
2022/05/01 17:56:29;;;;;;;27.37;11.43;;;;;;;-141.13;100.00;65498.22;10380177;28;20230;-66
2022/05/01 18:01:47;;;;;;;12.83;5.10;;;;;;;-141.13;100.00;65498.22;10378353;28;20214;-67
2022/05/01 18:12:26;;;;;;;10.70;3.43;;;;;;;-141.13;100.00;65498.22;10379293;28;20219;-71
2022/05/01 18:17:46;;;;;;;7.17;2.60;;;;;;;-141.13;100.00;65498.22;10400617;28;20220;-69
2022/05/01 18:22:56;;;;;;;10.97;4.40;;;;;;;-141.13;100.00;65498.22;10419733;28;20274;-70
2022/05/01 18:28:05;;;;;;;11.03;4.30;;;;;;;-141.13;100.00;65498.22;10419854;28;20320;-67
2022/05/01 18:33:31;;;;;;;10.17;4.10;;;;;;;-141.13;100.00;65498.22;10388340;28;20305;-70
2022/05/01 18:38:37;;;;;;;9.57;3.30;;;;;;;-141.13;100.00;65498.22;10378505;28;20723;-66
2022/05/01 18:43:44;;;;;;;8.90;3.07;;;;;;;-141.13;100.00;65498.22;10378330;28;20309;-66
2022/05/01 18:48:52;;;;;;;6.43;3.03;;;;;;;-141.13;100.00;65498.22;10380117;28;20594;-68
2022/05/01 18:53:56;;;;;;;8.93;3.40;;;;;;;-141.13;100.00;65498.22;10377873;28;20570;-67
2022/05/01 18:58:59;;;;;;;8.60;3.20;;;;;;;-141.13;100.00;65498.22;10413390;28;20511;-69
2022/05/01 19:04:05;;;;;;;10.27;3.63;;;;;;;-141.13;100.00;65498.22;10420351;28;20221;-68
2022/05/01 19:09:20;;;;;;;9.37;3.60;;;;;;;-141.13;100.00;65498.22;10417951;28;20320;-67
2022/05/01 19:14:39;;;;;;;12.20;4.30;;;;;;;-141.13;100.00;65498.22;10417712;28;20221;-70
2022/05/01 19:20:04;;;;;;;9.80;4.07;;;;;;;-141.13;100.00;65498.22;10418185;28;20217;-66
2022/05/01 19:30:54;;;;;;;9.37;4.23;;;;;;;-141.13;100.00;65498.22;10417014;28;20268;-69
2022/05/01 19:36:11;;;;;;;9.43;4.40;;;;;;;-141.13;100.00;65498.22;10420458;28;20221;-71
2022/05/01 19:41:29;;;;;;;11.43;3.30;;;;;;;-141.13;100.00;65498.22;10416674;28;20536;-64
2022/05/01 19:46:40;;;;;;;15.50;5.20;;;;;;;-141.13;100.00;65498.22;10416841;28;20268;-68
2022/05/01 19:57:15;;;;;;;10.73;4.93;;;;;;;-141.13;100.00;65498.22;10416034;28;20225;-68
2022/05/01 20:02:20;;;;;;;9.37;3.93;;;;;;;-141.13;100.00;65498.22;10416320;28;20200;-69
2022/05/01 20:07:27;;;;;;;9.10;3.97;;;;;;;-141.13;100.00;65498.22;10417607;28;20205;-68
2022/05/01 20:12:30;;;;;;;10.57;4.63;;;;;;;-141.13;100.00;65498.22;10415745;28;20190;-67
2022/05/01 20:17:53;;;;;;;14.60;4.67;;;;;;;-141.13;100.00;65498.22;10415709;28;20213;-69
2022/05/01 20:23:05;;;;;;;15.50;4.97;;;;;;;-141.13;100.00;65498.22;10414633;28;20225;-68
2022/05/01 20:28:25;;;;;;;11.50;4.60;;;;;;;-141.13;100.00;65498.22;10415533;28;20194;-68
2022/05/01 20:33:39;;;;;;;12.40;5.00;;;;;;;-141.13;100.00;65498.22;10381719;28;20277;-68
2022/05/01 20:38:54;;;;;;;14.20;6.60;;;;;;;-141.13;100.00;65498.22;10375309;28;20214;-65
2022/05/01 20:44:02;;;;;;;11.20;5.20;;;;;;;-141.13;100.00;65498.22;10374236;28;20228;-68
2022/05/01 20:49:27;;;;;;;10.73;4.77;;;;;;;-141.13;100.00;65498.22;10373930;28;20730;-67
2022/05/01 20:54:37;;;;;;;17.50;6.33;;;;;;;-141.13;100.00;65498.22;10373811;28;20236;-64
2022/05/01 20:59:42;;;;;;;9.50;4.83;;;;;;;-141.13;100.00;65498.22;10373938;28;20305;-67
2022/05/01 21:04:46;;;;;;;13.73;4.50;;;;;;;-141.13;100.00;65498.22;10374006;28;20221;-65
2022/05/01 21:09:52;;;;;;;10.07;4.67;;;;;;;-141.13;100.00;65498.22;10375206;28;20288;-66
2022/05/01 21:14:56;;;;;;;8.67;4.43;;;;;;;-141.13;100.00;65498.22;10373529;28;20287;-68
2022/05/01 21:20:00;;;;;;;11.03;4.57;;;;;;;-141.13;100.00;65498.22;10373351;28;20543;-66
2022/05/01 21:25:05;;;;;;;10.50;4.63;;;;;;;-141.13;100.00;65498.22;10373783;28;20292;-68
2022/05/01 21:35:31;;;;;;;10.37;5.73;;;;;;;-141.13;100.00;65498.22;10419594;28;20232;-65
2022/05/01 21:40:36;;;;;;;18.80;9.83;;;;;;;-141.13;100.00;65498.22;10423562;28;20657;-66
2022/05/01 21:45:41;;;;;;;11.23;5.10;;;;;;;-141.13;100.00;65498.22;10421297;28;20217;-69
2022/05/01 21:50:45;;;;;;;11.50;6.30;;;;;;;-141.13;100.00;65498.22;10404509;28;20247;-68
2022/05/01 21:55:52;;;;;;;14.30;7.17;;;;;;;-141.13;100.00;65498.22;10421266;28;20217;-67
2022/05/01 22:00:56;;;;;;;11.53;6.17;;;;;;;-141.13;100.00;65498.22;10422038;28;20185;-67
2022/05/01 22:05:59;;;;;;;15.20;6.50;;;;;;;-141.13;100.00;65498.22;10420926;28;20201;-71
2022/05/01 22:11:05;;;;;;;16.13;7.33;;;;;;;-141.13;100.00;65498.22;10405174;28;20197;-64
2022/05/01 22:16:08;;;;;;;12.93;7.47;;;;;;;-141.13;100.00;65498.22;10402974;28;20316;-68
2022/05/01 22:21:11;;;;;;;15.97;8.67;;;;;;;-141.13;100.00;65498.22;10420252;28;20189;-66
2022/05/01 22:26:17;;;;;;;19.40;9.77;;;;;;;-141.13;100.00;65498.22;10419497;28;20233;-68
2022/05/01 22:31:20;;;;;;;20.13;10.70;;;;;;;-141.13;100.00;65498.22;10386576;28;20206;-67
2022/05/01 22:41:45;;;;;;;19.33;10.73;;;;;;;-141.13;100.00;65498.22;10379922;28;20545;-66
2022/05/01 22:46:48;;;;;;;24.30;12.60;;;;;;;-141.13;100.00;65498.22;10377630;28;20623;-66
2022/05/01 22:51:52;;;;;;;23.23;11.97;;;;;;;-141.13;100.00;65498.22;10377789;28;20540;-67
2022/05/01 22:56:57;;;;;;;22.27;12.90;;;;;;;-141.13;100.00;65498.22;10377473;28;20236;-65
2022/05/01 23:02:00;;;;;;;22.30;13.03;;;;;;;-141.13;100.00;65498.22;10377668;28;20226;-65
2022/05/01 23:07:04;;;;;;;23.37;12.67;;;;;;;-141.13;100.00;65498.22;10359946;28;20226;-65
2022/05/01 23:12:11;;;;;;;21.60;12.10;;;;;;;-141.13;100.00;65498.22;10378976;28;20218;-65
2022/05/01 23:17:16;;;;;;;24.37;12.63;;;;;;;-141.13;100.00;65498.22;10376867;28;20233;-68
2022/05/01 23:22:19;;;;;;;22.07;11.80;;;;;;;-141.13;100.00;65498.22;10408297;28;20209;-67
2022/05/01 23:27:24;;;;;;;21.23;13.60;;;;;;;-141.13;100.00;65498.22;10417248;28;20235;-66
2022/05/01 23:32:30;;;;;;;23.97;13.70;;;;;;;-141.13;100.00;65498.22;10392070;28;20230;-67
2022/05/01 23:37:33;;;;;;;21.83;13.30;;;;;;;-141.13;100.00;65498.22;10375876;28;20313;-66
2022/05/01 23:42:38;;;;;;;23.73;13.37;;;;;;;-141.13;100.00;65498.22;10377106;28;20226;-68
2022/05/01 23:47:43;;;;;;;20.20;12.80;;;;;;;-141.13;100.00;65498.22;10375626;28;20329;-71
2022/05/01 23:52:46;;;;;;;27.37;14.07;;;;;;;-141.13;100.00;65498.22;10359734;28;20256;-68
2022/05/01 23:57:51;;;;;;;25.37;14.47;;;;;;;-141.13;100.00;65498.22;10377273;28;20291;-68
